Time;durP1;ratioP1;P1;durP2;ratioP2;P2;SDS_P1;SDS_P2;PMS_P1;PMS_P2;Temp;Humidity;BMP_temperature;BMP_pressure;BME280_temperature;BME280_humidity;BME280_pressure;Samples;Min_cycle;Max_cycle;Signal;HPM_P1;HPM_P2
2023/08/29 00:02:01;;;;;;;0.40;0.20;;;;;;;16.45;97.53;99680.63;5019859;28;20459;-51
2023/08/29 00:04:27;;;;;;;0.40;0.20;;;;;;;16.35;98.17;99676.78;5024969;28;20957;-51
2023/08/29 00:06:54;;;;;;;0.40;0.20;;;;;;;16.24;98.98;99678.28;5024392;28;20450;-51
2023/08/29 00:09:21;;;;;;;0.40;0.20;;;;;;;16.38;98.40;99682.81;5018279;28;20527;-51
2023/08/29 00:11:48;;;;;;;0.40;0.20;;;;;;;16.39;98.24;99684.53;5019321;28;20934;-51
2023/08/29 00:14:14;;;;;;;0.40;0.20;;;;;;;16.31;98.50;99684.16;5024956;28;20846;-51
2023/08/29 00:16:40;;;;;;;0.40;0.20;;;;;;;16.22;98.86;99677.53;5024397;28;20491;-50
2023/08/29 00:19:07;;;;;;;0.40;0.20;;;;;;;16.09;99.56;99684.59;5018286;28;20553;-51
2023/08/29 00:21:33;;;;;;;0.40;0.20;;;;;;;15.99;100.00;99680.75;5019050;28;20952;-51
2023/08/29 00:23:59;;;;;;;0.40;0.20;;;;;;;15.90;100.00;99682.19;5025140;28;20559;-51
2023/08/29 00:26:26;;;;;;;0.40;0.20;;;;;;;15.95;100.00;99695.31;5024602;28;20793;-51
2023/08/29 00:28:53;;;;;;;0.40;0.20;;;;;;;15.98;100.00;99697.78;5021892;28;20447;-51
2023/08/29 00:31:20;;;;;;;0.40;0.20;;;;;;;15.84;100.00;99687.03;5022483;28;21012;-51
2023/08/29 00:33:46;;;;;;;0.40;0.20;;;;;;;15.81;100.00;99688.09;5028290;28;21059;-51
2023/08/29 00:36:13;;;;;;;0.40;0.20;;;;;;;15.70;100.00;99688.72;5015464;28;20507;-51
2023/08/29 00:38:39;;;;;;;0.40;0.20;;;;;;;15.61;100.00;99683.91;5027921;28;20800;-51
2023/08/29 00:41:06;;;;;;;0.40;0.20;;;;;;;15.66;100.00;99681.81;5028136;28;20415;-51
2023/08/29 00:43:32;;;;;;;0.40;0.20;;;;;;;15.65;100.00;99693.50;5022185;28;20471;-51
2023/08/29 00:45:59;;;;;;;0.40;0.20;;;;;;;15.72;100.00;99699.34;5021542;28;20471;-51
2023/08/29 00:48:26;;;;;;;0.40;0.20;;;;;;;15.80;100.00;99696.22;5028091;28;20449;-51
2023/08/29 00:50:52;;;;;;;0.40;0.20;;;;;;;15.80;100.00;99707.81;5026724;28;20459;-50
2023/08/29 00:53:19;;;;;;;0.40;0.20;;;;;;;15.93;100.00;99713.31;5021675;28;20483;-50
2023/08/29 00:55:45;;;;;;;0.40;0.20;;;;;;;16.14;100.00;99720.03;5021313;28;20531;-51
2023/08/29 00:58:12;;;;;;;0.40;0.20;;;;;;;16.05;100.00;99728.66;5027814;28;20489;-51
2023/08/29 01:00:39;;;;;;;0.40;0.20;;;;;;;16.06;100.00;99725.03;5028091;28;20462;-51
2023/08/29 01:03:05;;;;;;;0.40;0.20;;;;;;;16.09;100.00;99722.16;5021908;28;20468;-51
2023/08/29 01:05:32;;;;;;;0.40;0.20;;;;;;;16.10;100.00;99726.56;5020791;28;20491;-51
2023/08/29 01:07:59;;;;;;;0.40;0.20;;;;;;;16.10;100.00;99736.41;5027148;28;20448;-51
2023/08/29 01:10:39;;;;;;;0.40;0.20;;;;;;;16.09;100.00;99723.97;5027757;28;20476;-52
2023/08/29 01:13:08;;;;;;;0.40;0.20;;;;;;;16.02;100.00;99722.59;5023823;28;20474;-51
2023/08/29 01:15:35;;;;;;;0.40;0.20;;;;;;;16.08;100.00;99711.50;5020851;28;20474;-51
2023/08/29 01:18:05;;;;;;;0.40;0.20;;;;;;;16.17;100.00;99716.28;5024556;28;20496;-52
2023/08/29 01:20:33;;;;;;;0.40;0.20;;;;;;;16.21;100.00;99721.41;5027538;28;20449;-51
2023/08/29 01:23:10;;;;;;;0.40;0.20;;;;;;;16.14;100.00;99716.50;5024616;28;20474;-52
2023/08/29 01:26:05;;;;;;;0.40;0.20;;;;;;;16.18;100.00;99721.59;5020522;28;21003;-52
2023/08/29 01:28:33;;;;;;;0.40;0.20;;;;;;;16.27;100.00;99726.38;5020703;28;20467;-51
2023/08/29 01:31:00;;;;;;;0.40;0.20;;;;;;;16.34;100.00;99723.34;5024757;28;20539;-51
2023/08/29 01:33:27;;;;;;;0.40;0.20;;;;;;;16.41;100.00;99733.59;5027530;28;20467;-51
2023/08/29 01:35:54;;;;;;;0.40;0.20;;;;;;;16.55;100.00;99725.53;5013969;28;20925;-52
2023/08/29 01:38:20;;;;;;;0.40;0.20;;;;;;;16.57;100.00;99728.97;5026863;28;20492;-52
2023/08/29 01:40:47;;;;;;;0.40;0.20;;;;;;;16.66;100.00;99724.88;5025214;28;20447;-52
2023/08/29 01:43:13;;;;;;;0.40;0.20;;;;;;;16.76;100.00;99727.88;5020222;28;20889;-51
2023/08/29 01:45:40;;;;;;;0.40;0.20;;;;;;;16.66;100.00;99726.69;5022392;28;20453;-52
2023/08/29 01:48:07;;;;;;;0.40;0.20;;;;;;;16.67;100.00;99728.41;5027248;28;20484;-51
2023/08/29 01:50:36;;;;;;;0.40;0.20;;;;;;;16.66;100.00;99718.66;5025511;28;20949;-50
2023/08/29 01:53:03;;;;;;;0.40;0.20;;;;;;;16.75;100.00;99724.34;5020421;28;20860;-52
2023/08/29 01:55:30;;;;;;;0.40;0.20;;;;;;;16.72;100.00;99719.19;5021502;28;20539;-50
2023/08/29 01:57:58;;;;;;;0.40;0.20;;;;;;;16.68;100.00;99717.63;5026864;28;20498;-51
2023/08/29 02:00:25;;;;;;;0.40;0.20;;;;;;;16.71;100.00;99712.06;5025998;28;20455;-51
2023/08/29 02:02:52;;;;;;;0.40;0.20;;;;;;;16.56;100.00;99710.31;5020183;28;20555;-51
2023/08/29 02:05:18;;;;;;;0.40;0.20;;;;;;;16.56;100.00;99702.25;5020981;28;20439;-51
2023/08/29 02:07:45;;;;;;;0.40;0.20;;;;;;;16.62;100.00;99698.34;5026684;28;20801;-51
2023/08/29 02:10:11;;;;;;;0.40;0.20;;;;;;;16.56;100.00;99689.69;5026288;28;20530;-51
2023/08/29 02:12:37;;;;;;;0.40;0.20;;;;;;;16.57;100.00;99687.88;5019661;28;20471;-51
2023/08/29 02:15:06;;;;;;;0.40;0.20;;;;;;;16.49;100.00;99684.81;5020480;28;20483;-51
2023/08/29 02:17:38;;;;;;;0.40;0.20;;;;;;;16.46;100.00;99685.88;5020193;28;20491;-51
2023/08/29 02:20:06;;;;;;;0.40;0.20;;;;;;;16.51;100.00;99681.09;5020050;28;20453;-51
2023/08/29 02:22:33;;;;;;;0.40;0.20;;;;;;;16.42;100.00;99678.09;5012534;28;20555;-50
2023/08/29 02:25:02;;;;;;;0.40;0.20;;;;;;;16.37;100.00;99681.09;5026172;28;20458;-51
2023/08/29 02:27:28;;;;;;;0.40;0.20;;;;;;;16.22;100.00;99680.22;5021005;28;20444;-51
2023/08/29 02:29:56;;;;;;;0.40;0.20;;;;;;;16.09;100.00;99678.38;5019564;28;20459;-51
2023/08/29 02:32:22;;;;;;;0.40;0.20;;;;;;;16.17;100.00;99674.28;5023716;28;20478;-51
2023/08/29 02:34:49;;;;;;;0.40;0.20;;;;;;;16.11;100.00;99666.59;5018283;28;20540;-51
2023/08/29 02:37:15;;;;;;;0.40;0.20;;;;;;;16.07;100.00;99662.41;5022123;28;20510;-51
2023/08/29 02:39:42;;;;;;;0.40;0.20;;;;;;;16.06;100.00;99658.00;5019097;28;20453;-50
2023/08/29 02:42:08;;;;;;;0.40;0.20;;;;;;;16.20;100.00;99660.69;5023509;28;20547;-51
2023/08/29 02:44:35;;;;;;;0.40;0.20;;;;;;;16.33;100.00;99652.75;5026231;28;20484;-51
2023/08/29 02:47:01;;;;;;;0.40;0.20;;;;;;;16.40;100.00;99648.69;5022517;28;20452;-51
2023/08/29 02:49:27;;;;;;;0.40;0.20;;;;;;;16.37;100.00;99648.03;5018320;28;20455;-51
2023/08/29 02:51:56;;;;;;;0.40;0.20;;;;;;;16.41;100.00;99638.81;5023143;28;20456;-51
2023/08/29 02:54:22;;;;;;;0.40;0.30;;;;;;;16.40;100.00;99647.84;5025818;28;20928;-51
2023/08/29 02:56:51;;;;;;;0.40;0.20;;;;;;;16.46;100.00;99644.78;5022310;28;20494;-50
2023/08/29 02:59:17;;;;;;;0.73;0.73;;;;;;;16.45;100.00;99643.06;5019584;28;20444;-51
2023/08/29 03:01:43;;;;;;;0.40;0.20;;;;;;;16.37;100.00;99637.31;5022716;28;20800;-51
2023/08/29 03:04:10;;;;;;;0.40;0.20;;;;;;;16.39;100.00;99638.06;5025850;28;20469;-51
2023/08/29 03:06:36;;;;;;;0.40;0.20;;;;;;;16.39;100.00;99636.25;5022489;28;20448;-51
2023/08/29 03:09:03;;;;;;;0.50;0.30;;;;;;;16.41;100.00;99639.69;5019119;28;20452;-51
2023/08/29 03:11:30;;;;;;;0.40;0.20;;;;;;;16.39;100.00;99630.88;5022111;28;20828;-51
2023/08/29 03:13:56;;;;;;;0.40;0.20;;;;;;;16.34;100.00;99633.00;5025792;28;20555;-51
2023/08/29 03:16:22;;;;;;;0.40;0.20;;;;;;;16.40;100.00;99629.06;5022665;28;20447;-51
2023/08/29 03:18:50;;;;;;;0.40;0.20;;;;;;;16.40;100.00;99629.06;5018758;28;20491;-51
2023/08/29 03:21:16;;;;;;;0.40;0.20;;;;;;;16.38;100.00;99636.34;5026148;28;20454;-50
2023/08/29 03:23:43;;;;;;;0.40;0.20;;;;;;;16.40;100.00;99639.78;5018794;28;20554;-51
2023/08/29 03:26:09;;;;;;;0.40;0.20;;;;;;;16.42;100.00;99643.22;5022473;28;20449;-50
2023/08/29 03:28:37;;;;;;;0.40;0.20;;;;;;;16.40;100.00;99648.69;5025539;28;20511;-51
2023/08/29 03:31:11;;;;;;;0.40;0.20;;;;;;;16.48;100.00;99653.59;5022557;28;20932;-52
2023/08/29 03:33:38;;;;;;;0.40;0.20;;;;;;;16.25;100.00;99655.03;5018084;28;20496;-51
2023/08/29 03:36:05;;;;;;;0.40;0.20;;;;;;;16.17;100.00;99657.31;5012213;28;20453;-51
2023/08/29 03:38:37;;;;;;;0.40;0.20;;;;;;;16.08;100.00;99645.34;5031698;28;20497;-51
2023/08/29 03:41:04;;;;;;;0.40;0.27;;;;;;;16.02;100.00;99658.25;5018922;28;20481;-51
2023/08/29 03:43:33;;;;;;;0.50;0.20;;;;;;;15.90;100.00;99659.88;5024744;28;20836;-51
2023/08/29 03:45:59;;;;;;;0.40;0.20;;;;;;;15.85;100.00;99657.47;5025480;28;20452;-51
2023/08/29 03:48:26;;;;;;;0.40;0.20;;;;;;;15.89;100.00;99666.16;5019946;28;20530;-51
2023/08/29 03:50:55;;;;;;;0.40;0.20;;;;;;;15.90;100.00;99662.56;5016204;28;20483;-51
2023/08/29 03:53:25;;;;;;;0.40;0.20;;;;;;;15.80;100.00;99661.38;5007095;28;20875;-51
2023/08/29 03:55:51;;;;;;;0.40;0.20;;;;;;;15.93;100.00;99655.19;5018483;28;20457;-51
2023/08/29 03:58:17;;;;;;;0.40;0.20;;;;;;;15.92;100.00;99658.81;5023164;28;20575;-51
2023/08/29 04:00:44;;;;;;;0.40;0.20;;;;;;;15.91;100.00;99661.59;5026252;28;20462;-51
2023/08/29 04:03:11;;;;;;;0.40;0.20;;;;;;;15.93;100.00;99662.38;5024748;28;20476;-51
2023/08/29 04:05:38;;;;;;;0.40;0.20;;;;;;;15.86;100.00;99661.88;5022153;28;20452;-51
2023/08/29 04:08:06;;;;;;;0.40;0.20;;;;;;;15.90;100.00;99662.56;5026474;28;20852;-51
2023/08/29 04:10:37;;;;;;;0.40;0.20;;;;;;;15.80;100.00;99664.06;5028596;28;20481;-52
2023/08/29 04:13:06;;;;;;;0.40;0.20;;;;;;;15.80;100.00;99664.06;5025314;28;21071;-52
2023/08/29 04:15:33;;;;;;;0.40;0.20;;;;;;;15.77;100.00;99658.91;5021644;28;20454;-50
2023/08/29 04:18:03;;;;;;;0.40;0.20;;;;;;;15.93;100.00;99659.69;5024887;28;20582;-51
2023/08/29 04:20:33;;;;;;;0.40;0.20;;;;;;;15.89;100.00;99663.50;5029024;28;20542;-51
2023/08/29 04:23:03;;;;;;;0.40;0.20;;;;;;;15.93;100.00;99671.28;5026922;28;20468;-51
2023/08/29 04:25:30;;;;;;;0.40;0.30;;;;;;;15.91;100.00;99667.84;5021598;28;20458;-50
2023/08/29 04:27:57;;;;;;;0.40;0.20;;;;;;;15.91;100.00;99667.84;5023118;28;20483;-49
2023/08/29 04:30:23;;;;;;;0.40;0.20;;;;;;;15.92;100.00;99664.19;5028605;28;21025;-50
2023/08/29 04:32:53;;;;;;;0.40;0.20;;;;;;;15.96;100.00;99654.13;5027550;28;20472;-51
2023/08/29 04:35:19;;;;;;;0.40;0.20;;;;;;;15.90;100.00;99659.88;5015407;28;20423;-51
2023/08/29 04:37:47;;;;;;;0.40;0.20;;;;;;;15.92;100.00;99657.97;5028162;28;20598;-51
2023/08/29 04:40:15;;;;;;;0.40;0.20;;;;;;;15.95;100.00;99657.78;5008650;28;20933;-51
2023/08/29 04:42:42;;;;;;;0.40;0.20;;;;;;;15.95;100.00;99660.47;5021040;28;20472;-51
2023/08/29 04:45:08;;;;;;;0.40;0.20;;;;;;;15.93;100.00;99660.56;5027836;28;20537;-51
2023/08/29 04:47:35;;;;;;;0.40;0.20;;;;;;;15.86;100.00;99659.19;5028204;28;20448;-51
2023/08/29 04:50:01;;;;;;;0.50;0.40;;;;;;;15.84;100.00;99655.75;5022425;28;20452;-51
2023/08/29 04:52:28;;;;;;;0.40;0.20;;;;;;;15.89;100.00;99645.59;5021262;28;20582;-50
2023/08/29 04:54:55;;;;;;;0.40;0.20;;;;;;;15.97;100.00;99634.41;5026955;28;21010;-51
2023/08/29 04:57:21;;;;;;;0.40;0.20;;;;;;;16.06;100.00;99644.59;5027980;28;20491;-51
2023/08/29 04:59:48;;;;;;;0.40;0.20;;;;;;;16.13;100.00;99640.56;5022592;28;20458;-50
2023/08/29 05:02:16;;;;;;;0.40;0.20;;;;;;;16.08;100.00;99639.97;5021173;28;20471;-51
2023/08/29 05:04:43;;;;;;;0.40;0.20;;;;;;;16.08;100.00;99644.47;5026650;28;20842;-51
2023/08/29 05:07:10;;;;;;;0.40;0.20;;;;;;;16.12;100.00;99641.50;5027983;28;20478;-51
2023/08/29 05:09:36;;;;;;;0.40;0.20;;;;;;;16.34;100.00;99645.56;5020884;28;20458;-51
2023/08/29 05:12:04;;;;;;;0.40;0.20;;;;;;;16.69;100.00;99640.66;5020137;28;20491;-51
2023/08/29 05:14:30;;;;;;;0.40;0.20;;;;;;;16.52;100.00;99641.69;5026384;28;20452;-51
2023/08/29 05:16:56;;;;;;;0.40;0.20;;;;;;;16.29;100.00;99643.13;5027767;28;20426;-50
2023/08/29 05:19:23;;;;;;;0.40;0.20;;;;;;;16.29;100.00;99649.38;5022541;28;20491;-51
2023/08/29 05:21:49;;;;;;;0.40;0.20;;;;;;;16.36;100.00;99640.94;5020574;28;20474;-50
2023/08/29 05:24:15;;;;;;;0.40;0.20;;;;;;;16.32;100.00;99645.66;5025938;28;20894;-51
2023/08/29 05:26:44;;;;;;;0.40;0.20;;;;;;;16.34;100.00;99642.88;5027292;28;21031;-50
2023/08/29 05:29:10;;;;;;;2.10;1.90;;;;;;;16.28;100.00;99642.28;5022853;28;20447;-51
2023/08/29 05:31:37;;;;;;;0.40;0.20;;;;;;;16.23;100.00;99651.56;5020480;28;20448;-51
2023/08/29 05:34:04;;;;;;;0.40;0.20;;;;;;;16.38;100.00;99649.75;5025016;28;20464;-51
2023/08/29 05:36:30;;;;;;;0.40;0.20;;;;;;;16.33;100.00;99647.38;5016695;28;20456;-50
2023/08/29 05:38:56;;;;;;;0.40;0.20;;;;;;;16.26;100.00;99644.19;5024389;28;20862;-50
2023/08/29 05:41:23;;;;;;;0.40;0.20;;;;;;;16.35;100.00;99650.81;5027157;28;20454;-51
2023/08/29 05:43:49;;;;;;;0.40;0.20;;;;;;;16.28;100.00;99638.72;5023491;28;20793;-50
2023/08/29 05:46:16;;;;;;;0.40;0.20;;;;;;;16.26;100.00;99646.88;5020242;28;20862;-50
2023/08/29 05:48:42;;;;;;;0.40;0.20;;;;;;;16.39;100.00;99651.47;5023123;28;20892;-51
2023/08/29 05:51:08;;;;;;;0.40;0.20;;;;;;;16.42;100.00;99645.91;5026843;28;20547;-51
2023/08/29 05:53:35;;;;;;;0.40;0.20;;;;;;;16.28;100.00;99644.97;5023474;28;20485;-50
2023/08/29 05:56:01;;;;;;;0.40;0.20;;;;;;;16.38;100.00;99647.94;5020527;28;20451;-51
2023/08/29 05:58:28;;;;;;;0.40;0.20;;;;;;;16.33;100.00;99649.19;5023968;28;21021;-51
2023/08/29 06:00:55;;;;;;;0.40;0.20;;;;;;;16.36;100.00;99641.81;5027132;28;20451;-51
2023/08/29 06:03:22;;;;;;;0.40;0.20;;;;;;;16.41;100.00;99641.50;5023772;28;20496;-51
2023/08/29 06:05:49;;;;;;;0.40;0.20;;;;;;;16.34;100.00;99645.56;5020180;28;20451;-50
2023/08/29 06:08:15;;;;;;;0.40;0.20;;;;;;;16.27;100.00;99645.06;5023983;28;20448;-51
2023/08/29 06:10:46;;;;;;;0.40;0.20;;;;;;;16.37;100.00;99645.34;5026949;28;20548;-51
2023/08/29 06:13:12;;;;;;;0.40;0.20;;;;;;;16.75;100.00;99643.81;5024599;28;20498;-51
2023/08/29 06:15:39;;;;;;;0.40;0.20;;;;;;;16.65;100.00;99642.66;5020439;28;20502;-51
2023/08/29 06:18:05;;;;;;;0.40;0.20;;;;;;;16.76;100.00;99642.00;5022596;28;20579;-51
2023/08/29 06:20:32;;;;;;;0.40;0.20;;;;;;;16.90;100.00;99646.47;5026852;28;20449;-50
2023/08/29 06:22:59;;;;;;;0.40;0.20;;;;;;;16.90;100.00;99641.09;5024615;28;20474;-51
2023/08/29 06:25:25;;;;;;;0.40;0.20;;;;;;;16.98;100.00;99645.00;5019487;28;20893;-51
2023/08/29 06:27:52;;;;;;;0.40;0.30;;;;;;;17.35;100.00;99646.13;5022532;28;20476;-51
2023/08/29 06:30:18;;;;;;;0.40;0.20;;;;;;;17.57;98.40;99647.38;5026747;28;20455;-50
2023/08/29 06:32:44;;;;;;;0.40;0.20;;;;;;;17.45;98.63;99646.38;5024427;28;20482;-51
2023/08/29 06:35:11;;;;;;;0.50;0.40;;;;;;;17.14;99.03;99655.63;5014996;28;20452;-50
2023/08/29 06:37:38;;;;;;;0.40;0.20;;;;;;;17.33;99.55;99652.56;5025314;28;20451;-51
2023/08/29 06:40:05;;;;;;;0.40;0.30;;;;;;;17.59;98.76;99658.88;5019467;28;20882;-51
2023/08/29 06:42:32;;;;;;;0.40;0.20;;;;;;;17.45;98.55;99655.28;5020717;28;20474;-51
2023/08/29 06:44:58;;;;;;;0.40;0.20;;;;;;;17.59;98.13;99658.88;5026446;28;20457;-51
2023/08/29 06:47:25;;;;;;;0.40;0.20;;;;;;;17.58;97.83;99655.34;5025637;28;20447;-51
2023/08/29 06:49:55;;;;;;;0.40;0.20;;;;;;;17.37;98.19;99663.00;5019438;28;20443;-51
2023/08/29 06:52:22;;;;;;;0.40;0.20;;;;;;;17.38;98.77;99663.84;5019538;28;20564;-49
2023/08/29 06:54:49;;;;;;;0.40;0.20;;;;;;;17.44;99.18;99663.47;5007085;28;20538;-51
2023/08/29 06:57:15;;;;;;;0.40;0.20;;;;;;;17.54;98.54;99663.69;5019437;28;20445;-51
2023/08/29 06:59:41;;;;;;;0.40;0.20;;;;;;;17.71;97.42;99660.78;5025164;28;20945;-51
2023/08/29 07:02:08;;;;;;;0.40;0.20;;;;;;;17.88;96.45;99665.00;5025781;28;20451;-51
2023/08/29 07:04:34;;;;;;;0.40;0.20;;;;;;;17.71;96.50;99658.09;5020444;28;20501;-50
2023/08/29 07:07:01;;;;;;;0.40;0.20;;;;;;;17.66;97.19;99661.03;5019237;28;20449;-50
2023/08/29 07:09:27;;;;;;;0.40;0.20;;;;;;;17.70;96.70;99667.97;5025138;28;20456;-51
2023/08/29 07:11:54;;;;;;;0.40;0.20;;;;;;;18.05;95.74;99668.22;5025796;28;20474;-51
2023/08/29 07:14:20;;;;;;;0.40;0.20;;;;;;;18.02;95.33;99671.13;5020083;28;20452;-51
2023/08/29 07:16:46;;;;;;;0.40;0.20;;;;;;;18.06;95.77;99672.63;5019274;28;20463;-51
2023/08/29 07:19:33;;;;;;;0.40;0.20;;;;;;;18.16;95.14;99675.56;5021851;28;20485;-50
2023/08/29 07:21:59;;;;;;;0.40;0.20;;;;;;;18.11;95.09;99674.16;5013710;28;20453;-50
2023/08/29 07:24:29;;;;;;;0.50;0.30;;;;;;;18.00;94.73;99675.75;5023787;28;20447;-50
2023/08/29 07:26:56;;;;;;;0.40;0.20;;;;;;;18.18;94.83;99672.75;5018821;28;20502;-51
2023/08/29 07:29:22;;;;;;;0.40;0.20;;;;;;;18.27;93.85;99672.13;5020468;28;20444;-50
2023/08/29 07:31:49;;;;;;;0.40;0.20;;;;;;;18.24;94.11;99675.91;5025729;28;20457;-50
2023/08/29 07:34:16;;;;;;;0.40;0.20;;;;;;;18.34;93.64;99676.09;5018172;28;20555;-50
2023/08/29 07:36:42;;;;;;;0.40;0.20;;;;;;;18.40;93.14;99677.50;5019497;28;20507;-49
2023/08/29 07:39:11;;;;;;;0.93;0.93;;;;;;;18.29;93.92;99683.63;5024892;28;20608;-50
2023/08/29 07:41:38;;;;;;;0.40;0.20;;;;;;;18.32;93.32;99686.09;5029549;28;20460;-50
2023/08/29 07:44:05;;;;;;;0.80;0.80;;;;;;;18.12;93.74;99698.28;5028556;28;20529;-50
2023/08/29 07:46:31;;;;;;;0.40;0.20;;;;;;;18.46;93.52;99698.59;5022659;28;20428;-51
2023/08/29 07:48:58;;;;;;;0.40;0.20;;;;;;;18.57;93.73;99701.38;5024416;28;20460;-51
2023/08/29 07:51:24;;;;;;;0.40;0.20;;;;;;;18.47;93.09;99701.16;5029141;28;20456;-51
2023/08/29 07:53:51;;;;;;;0.40;0.20;;;;;;;18.68;92.21;99704.22;5040996;23;20474;-49
2023/08/29 07:56:17;;;;;;;0.40;0.20;;;;;;;18.48;93.42;99707.41;5054501;28;20450;-48
2023/08/29 07:58:44;;;;;;;0.40;0.20;;;;;;;18.46;92.47;99709.34;5055996;28;20859;-48
2023/08/29 08:01:11;;;;;;;0.40;0.20;;;;;;;18.63;92.49;99704.53;5055633;28;20450;-48
2023/08/29 08:03:38;;;;;;;0.40;0.20;;;;;;;18.90;90.75;99719.66;5055692;28;20889;-48
2023/08/29 08:06:06;;;;;;;0.40;0.20;;;;;;;18.89;91.26;99715.25;5042072;28;20482;-48
2023/08/29 08:08:33;;;;;;;0.40;0.30;;;;;;;18.91;90.54;99708.81;5042974;28;20476;-48
2023/08/29 08:10:59;;;;;;;0.40;0.20;;;;;;;18.65;90.52;99717.91;5048667;28;20452;-48
2023/08/29 08:13:28;;;;;;;0.40;0.20;;;;;;;18.69;90.70;99711.31;5048507;28;20473;-48
2023/08/29 08:15:54;;;;;;;0.40;0.30;;;;;;;18.59;91.90;99719.16;5041977;28;20421;-48
2023/08/29 08:18:21;;;;;;;0.40;0.20;;;;;;;18.62;91.97;99716.22;5042490;28;20502;-48
2023/08/29 08:20:47;;;;;;;0.40;0.20;;;;;;;18.90;91.13;99714.28;5048744;28;20452;-48
2023/08/29 08:23:13;;;;;;;0.40;0.20;;;;;;;18.91;90.25;99724.09;5048203;28;20452;-48
2023/08/29 08:25:40;;;;;;;0.40;0.20;;;;;;;18.82;91.54;99728.31;5041536;28;20861;-49
2023/08/29 08:28:06;;;;;;;0.40;0.20;;;;;;;18.79;90.52;99725.00;5042302;28;20543;-48
2023/08/29 08:30:37;;;;;;;0.40;0.20;;;;;;;18.78;90.97;99728.66;5048602;28;20451;-48
2023/08/29 08:33:05;;;;;;;0.40;0.20;;;;;;;18.69;90.29;99727.47;5048543;28;20445;-49
2023/08/29 08:35:32;;;;;;;0.43;0.20;;;;;;;18.66;91.34;99732.22;5034963;28;20490;-48
2023/08/29 08:38:07;;;;;;;0.40;0.20;;;;;;;18.98;90.51;99735.31;5048271;28;20446;-48
2023/08/29 08:40:36;;;;;;;0.40;0.20;;;;;;;18.90;89.82;99731.31;5044511;28;20456;-48
2023/08/29 08:43:04;;;;;;;0.40;0.20;;;;;;;18.88;89.18;99730.56;5041433;28;20470;-48
2023/08/29 08:45:31;;;;;;;0.40;0.20;;;;;;;19.02;88.98;99734.97;5044507;28;20456;-49
2023/08/29 08:47:59;;;;;;;0.40;0.20;;;;;;;19.11;88.61;99737.00;5046897;28;20454;-48
2023/08/29 08:50:26;;;;;;;0.40;0.30;;;;;;;19.39;87.68;99733.13;5045723;28;20447;-48
2023/08/29 08:52:55;;;;;;;0.40;0.20;;;;;;;19.25;88.14;99735.97;5041462;28;20479;-47
2023/08/29 08:55:21;;;;;;;0.40;0.20;;;;;;;19.50;87.59;99737.75;5043221;28;20433;-48
2023/08/29 08:57:50;;;;;;;0.40;0.20;;;;;;;19.35;86.89;99737.03;5048065;28;20539;-48
2023/08/29 09:00:16;;;;;;;0.40;0.20;;;;;;;19.35;87.52;99739.72;5047164;28;20525;-49
2023/08/29 09:02:44;;;;;;;0.40;0.20;;;;;;;19.63;85.87;99735.03;5040847;28;20471;-48
2023/08/29 09:05:11;;;;;;;0.40;0.20;;;;;;;19.73;85.09;99734.19;5042352;28;20455;-47
2023/08/29 09:07:39;;;;;;;0.63;0.63;;;;;;;19.79;85.65;99736.44;5047712;28;20868;-48
2023/08/29 09:10:08;;;;;;;0.40;0.20;;;;;;;19.76;84.89;99733.13;5047710;28;20442;-47
2023/08/29 09:12:34;;;;;;;0.40;0.20;;;;;;;19.98;85.13;99730.50;5028385;28;20455;-49
2023/08/29 09:15:04;;;;;;;0.40;0.20;;;;;;;20.10;84.27;99739.50;5041190;28;20479;-48
2023/08/29 09:17:31;;;;;;;0.40;0.20;;;;;;;20.11;83.04;99741.22;5046992;28;20430;-49
2023/08/29 09:19:59;;;;;;;0.40;0.20;;;;;;;19.99;83.92;99736.75;5048062;28;20576;-49
2023/08/29 09:22:26;;;;;;;0.40;0.20;;;;;;;19.92;84.16;99736.38;5042457;28;20454;-47
2023/08/29 09:25:01;;;;;;;0.40;0.30;;;;;;;20.12;82.37;99735.69;5040955;28;20443;-48
2023/08/29 09:27:27;;;;;;;0.40;0.20;;;;;;;20.35;81.18;99746.56;5044784;28;20422;-48
2023/08/29 09:30:06;;;;;;;0.40;0.20;;;;;;;20.33;80.05;99735.03;5047650;28;20514;-48
2023/08/29 09:32:32;;;;;;;0.40;0.20;;;;;;;20.61;79.29;99731.06;5045953;28;20807;-48
2023/08/29 09:34:59;;;;;;;0.40;0.30;;;;;;;20.78;79.53;99740.50;5035534;28;20486;-49
2023/08/29 09:37:25;;;;;;;0.40;0.30;;;;;;;20.73;79.18;99731.94;5045089;28;20537;-48
2023/08/29 09:39:55;;;;;;;0.40;0.20;;;;;;;20.88;78.97;99739.66;5040822;28;20858;-49
2023/08/29 09:42:22;;;;;;;0.40;0.20;;;;;;;20.74;79.02;99737.22;5041850;28;20509;-50
2023/08/29 09:44:50;;;;;;;0.40;0.20;;;;;;;20.84;79.03;99737.34;5047240;28;20558;-48
2023/08/29 09:47:25;;;;;;;0.50;0.20;;;;;;;20.72;78.31;99741.88;5045379;28;20422;-47
2023/08/29 09:49:51;;;;;;;0.40;0.20;;;;;;;21.04;77.95;99730.31;5040039;28;20421;-48
2023/08/29 09:52:18;;;;;;;0.40;0.20;;;;;;;21.26;78.13;99733.03;5040943;28;20427;-48
2023/08/29 09:54:50;;;;;;;0.50;0.50;;;;;;;21.01;79.26;99734.13;5046720;28;20479;-48
2023/08/29 09:57:19;;;;;;;0.40;0.20;;;;;;;20.84;77.95;99730.09;5046639;28;21078;-49
2023/08/29 09:59:46;;;;;;;0.40;0.20;;;;;;;20.67;79.02;99726.00;5040637;28;21004;-49
2023/08/29 10:02:14;;;;;;;0.40;0.20;;;;;;;20.75;78.75;99725.41;5039915;28;20448;-49
2023/08/29 10:04:54;;;;;;;0.40;0.20;;;;;;;20.94;77.66;99719.38;5045555;28;20521;-48
2023/08/29 10:07:33;;;;;;;0.40;0.20;;;;;;;20.67;78.65;99725.16;5046730;28;20426;-49
2023/08/29 10:10:01;;;;;;;0.60;0.60;;;;;;;20.97;78.79;99722.72;5045295;28;20443;-48
2023/08/29 10:12:28;;;;;;;0.50;0.20;;;;;;;21.09;76.58;99725.38;5039556;28;20504;-48
2023/08/29 10:14:55;;;;;;;0.40;0.20;;;;;;;21.34;76.72;99721.59;5041748;28;20469;-48
2023/08/29 10:17:22;;;;;;;0.40;0.20;;;;;;;20.92;77.39;99721.34;5046520;28;20448;-49
2023/08/29 10:20:04;;;;;;;0.50;0.20;;;;;;;21.61;74.99;99711.19;5046756;28;20521;-49
2023/08/29 10:22:32;;;;;;;0.40;0.20;;;;;;;21.54;74.66;99707.28;5035563;28;20443;-48
2023/08/29 10:24:59;;;;;;;0.50;0.30;;;;;;;21.26;76.15;99708.72;5039762;28;20506;-48
2023/08/29 10:27:26;;;;;;;0.50;0.20;;;;;;;21.33;75.79;99701.78;5044781;28;20960;-48
2023/08/29 10:29:52;;;;;;;0.40;0.20;;;;;;;21.53;75.38;99706.44;5046033;28;20893;-48
2023/08/29 10:32:20;;;;;;;0.40;0.20;;;;;;;21.54;73.44;99710.00;5041436;28;20421;-50
2023/08/29 10:34:46;;;;;;;0.40;0.20;;;;;;;21.52;74.52;99706.56;5037546;28;20827;-48
2023/08/29 10:37:20;;;;;;;0.40;0.20;;;;;;;21.22;74.70;99705.34;5041996;28;20451;-48
2023/08/29 10:39:50;;;;;;;0.40;0.20;;;;;;;21.08;74.57;99697.50;5039006;28;21068;-48
2023/08/29 10:42:17;;;;;;;0.40;0.20;;;;;;;21.30;76.25;99693.94;5042420;28;20505;-47
2023/08/29 10:44:46;;;;;;;0.40;0.20;;;;;;;21.63;74.46;99711.03;5046255;28;20495;-49
2023/08/29 10:47:30;;;;;;;0.40;0.20;;;;;;;21.41;75.03;99693.91;5043580;28;20500;-48
2023/08/29 10:50:07;;;;;;;0.50;0.20;;;;;;;21.92;73.57;99690.50;5026409;28;20487;-48
2023/08/29 10:52:40;;;;;;;0.40;0.20;;;;;;;21.72;73.03;99694.91;5038976;28;20555;-48
2023/08/29 10:55:31;;;;;;;0.47;0.20;;;;;;;21.44;72.53;99696.38;5043768;28;20422;-49
2023/08/29 10:58:00;;;;;;;0.50;0.20;;;;;;;21.79;72.07;99695.22;5045792;28;20454;-49
2023/08/29 11:00:39;;;;;;;0.40;0.20;;;;;;;21.95;72.58;99692.97;5045731;28;20491;-48
2023/08/29 11:03:06;;;;;;;0.40;0.20;;;;;;;21.47;71.99;99687.13;5044119;28;20453;-48
2023/08/29 11:05:38;;;;;;;0.50;0.20;;;;;;;22.28;72.46;99685.66;5045680;28;20475;-49
2023/08/29 11:08:22;;;;;;;0.50;0.30;;;;;;;22.30;71.54;99686.38;5041571;28;20508;-47
2023/08/29 11:11:17;;;;;;;0.40;0.20;;;;;;;22.23;70.11;99687.94;5038289;28;20457;-48
2023/08/29 11:14:08;;;;;;;0.40;0.20;;;;;;;22.23;72.00;99687.94;5038582;28;20447;-49
2023/08/29 11:16:36;;;;;;;0.50;0.20;;;;;;;22.09;70.06;99678.28;5040178;28;20589;-48
2023/08/29 11:19:16;;;;;;;0.50;0.20;;;;;;;22.38;70.52;99675.75;5045423;28;20498;-49
2023/08/29 11:21:46;;;;;;;0.50;0.20;;;;;;;22.46;70.32;99665.94;5032638;28;20425;-48
2023/08/29 11:24:13;;;;;;;0.50;0.20;;;;;;;22.27;70.42;99667.69;5040944;28;20441;-48
2023/08/29 11:26:46;;;;;;;0.40;0.20;;;;;;;22.05;70.56;99669.53;5038236;28;20426;-48
2023/08/29 11:29:13;;;;;;;0.50;0.20;;;;;;;22.45;69.74;99660.66;5042691;28;20428;-48
2023/08/29 11:31:43;;;;;;;0.40;0.20;;;;;;;22.86;70.45;99657.03;5045516;28;20908;-49
2023/08/29 11:34:14;;;;;;;0.40;0.20;;;;;;;22.20;68.76;99659.22;5037326;28;20467;-49